Time;durP1;ratioP1;P1;durP2;ratioP2;P2;SDS_P1;SDS_P2;PMS_P1;PMS_P2;Temp;Humidity;BMP_temperature;BMP_pressure;BME280_temperature;BME280_humidity;BME280_pressure;Samples;Min_cycle;Max_cycle;Signal;HPM_P1;HPM_P2
2021/03/20 00:01:23;;;;;;;47.17;21.90;;;0.40;82.20;;;;;;5055137;28;20484;-74
2021/03/20 00:03:49;;;;;;;43.13;21.92;;;0.40;82.10;;;;;;5037210;28;20389;-75
2021/03/20 00:06:18;;;;;;;43.35;21.40;;;0.30;82.20;;;;;;5055000;28;20025;-74
2021/03/20 00:08:45;;;;;;;42.80;20.58;;;0.30;82.20;;;;;;5054974;28;20476;-74
2021/03/20 00:11:13;;;;;;;40.65;21.30;;;0.30;82.20;;;;;;5054989;28;20060;-75
2021/03/20 00:13:39;;;;;;;42.60;20.25;;;0.30;82.10;;;;;;5036948;28;20028;-76
2021/03/20 00:16:05;;;;;;;43.42;21.58;;;0.20;82.00;;;;;;5054760;28;20397;-76
2021/03/20 00:18:31;;;;;;;43.13;21.42;;;0.20;82.20;;;;;;5054893;28;20468;-74
2021/03/20 00:20:57;;;;;;;46.40;21.25;;;0.10;82.10;;;;;;5036808;28;20036;-74
2021/03/20 00:23:23;;;;;;;40.20;20.25;;;0.10;82.10;;;;;;5054635;28;20679;-75
2021/03/20 00:25:49;;;;;;;36.72;20.08;;;0.10;81.90;;;;;;5036833;28;20142;-75
2021/03/20 00:28:21;;;;;;;44.17;20.08;;;0.10;82.00;;;;;;5054620;28;20033;-75
2021/03/20 00:30:48;;;;;;;37.45;18.83;;;0.00;82.60;;;;;;5054648;28;20393;-74
2021/03/20 00:33:13;;;;;;;39.42;20.35;;;0.10;81.60;;;;;;5054530;28;20115;-74
2021/03/20 00:35:39;;;;;;;40.13;18.90;;;0.10;81.40;;;;;;5054556;28;20485;-74
2021/03/20 00:38:05;;;;;;;36.20;18.92;;;0.00;81.00;;;;;;5054196;28;20040;-74
2021/03/20 00:40:31;;;;;;;38.58;20.75;;;0.00;81.00;;;;;;5036572;28;20017;-75
2021/03/20 00:42:57;;;;;;;39.45;19.88;;;0.00;81.00;;;;;;5054346;28;20116;-75
2021/03/20 00:45:27;;;;;;;39.80;20.15;;;0.00;81.20;;;;;;5054306;28;20375;-75
2021/03/20 00:47:54;;;;;;;37.85;19.52;;;-0.10;81.30;;;;;;5054288;28;20025;-75
2021/03/20 00:50:24;;;;;;;40.13;20.60;;;-0.10;81.20;;;;;;5054273;28;20021;-75
2021/03/20 00:52:50;;;;;;;43.50;19.92;;;-0.10;81.20;;;;;;5054165;28;20052;-75
2021/03/20 00:55:16;;;;;;;44.75;20.30;;;-0.10;81.00;;;;;;5053284;28;20488;-74
2021/03/20 00:57:42;;;;;;;50.45;20.25;;;-0.10;80.80;;;;;;5054094;28;20474;-74
2021/03/20 01:00:17;;;;;;;40.30;20.65;;;-0.10;80.70;;;;;;5053954;28;20025;-75
2021/03/20 01:02:43;;;;;;;33.97;17.67;;;-0.20;80.10;;;;;;5053814;28;20033;-76
2021/03/20 01:05:10;;;;;;;37.78;18.80;;;-0.40;79.50;;;;;;5053855;28;20063;-76
2021/03/20 01:07:37;;;;;;;42.42;20.48;;;-0.40;79.50;;;;;;5053887;28;20025;-76
2021/03/20 01:10:08;;;;;;;43.50;20.17;;;-0.40;79.40;;;;;;5053813;28;20113;-75
2021/03/20 01:12:37;;;;;;;35.63;16.83;;;-0.40;79.20;;;;;;5053461;28;20033;-76
2021/03/20 01:15:05;;;;;;;34.78;17.33;;;-0.60;78.80;;;;;;5053655;28;20056;-75
2021/03/20 01:17:31;;;;;;;37.38;18.65;;;-0.70;78.60;;;;;;5035769;28;20021;-76
2021/03/20 01:19:57;;;;;;;28.80;16.25;;;-0.70;78.60;;;;;;5053237;28;20020;-75
2021/03/20 01:22:22;;;;;;;35.13;18.13;;;-0.80;78.60;;;;;;5053626;28;20500;-75
2021/03/20 01:24:48;;;;;;;33.92;16.95;;;-0.70;79.00;;;;;;5053428;28;20059;-76
2021/03/20 01:27:14;;;;;;;35.97;17.90;;;-0.70;79.20;;;;;;5053411;28;20108;-75
2021/03/20 01:29:40;;;;;;;31.52;17.23;;;-0.70;79.50;;;;;;5035625;28;20448;-75
2021/03/20 01:32:06;;;;;;;33.05;16.55;;;-0.70;79.40;;;;;;5053376;28;20115;-75
2021/03/20 01:34:32;;;;;;;29.30;15.75;;;-0.70;79.20;;;;;;5035579;28;20052;-75
2021/03/20 01:36:57;;;;;;;33.20;15.77;;;-0.70;79.10;;;;;;5053204;28;20168;-75
2021/03/20 01:39:23;;;;;;;32.13;16.33;;;-0.70;79.00;;;;;;5053184;28;20155;-74
2021/03/20 01:41:49;;;;;;;27.17;14.93;;;-0.70;79.00;;;;;;5035084;28;20478;-74
2021/03/20 01:44:19;;;;;;;29.63;15.98;;;-0.80;78.70;;;;;;5035294;28;20036;-75
2021/03/20 01:46:47;;;;;;;26.63;14.35;;;-0.80;78.80;;;;;;5034960;28;20029;-74
2021/03/20 01:49:30;;;;;;;28.90;15.88;;;-0.80;78.90;;;;;;5035269;28;20438;-74
2021/03/20 01:51:59;;;;;;;28.00;14.13;;;-0.80;78.60;;;;;;5035018;28;20029;-75
2021/03/20 01:54:33;;;;;;;24.50;13.35;;;-0.80;78.10;;;;;;5052966;28;20025;-75
2021/03/20 01:56:59;;;;;;;27.77;14.18;;;-0.80;77.30;;;;;;5034882;28;20053;-75
2021/03/20 01:59:25;;;;;;;25.60;14.10;;;-0.90;76.30;;;;;;5052775;28;20021;-74
2021/03/20 02:01:51;;;;;;;27.92;14.35;;;-0.90;75.80;;;;;;5034482;28;20359;-76
2021/03/20 02:04:17;;;;;;;25.45;14.07;;;-0.90;75.50;;;;;;5034561;28;20039;-76
2021/03/20 02:06:42;;;;;;;24.92;13.65;;;-1.00;75.30;;;;;;5052085;28;20458;-75
2021/03/20 02:09:10;;;;;;;24.15;13.60;;;-1.00;75.50;;;;;;5034206;28;20031;-76
2021/03/20 02:11:43;;;;;;;25.52;12.95;;;-1.10;75.70;;;;;;5052614;28;20021;-76
2021/03/20 02:14:54;;;;;;;27.67;13.68;;;-1.10;76.00;;;;;;5052697;28;20025;-76
2021/03/20 02:17:38;;;;;;;23.50;13.15;;;-1.10;76.20;;;;;;5049478;28;20049;-76
2021/03/20 02:20:24;;;;;;;29.35;15.55;;;-1.10;76.00;;;;;;5034822;28;20147;-76
2021/03/20 02:22:50;;;;;;;33.85;15.93;;;-1.10;76.10;;;;;;5034656;28;20044;-76
2021/03/20 02:25:21;;;;;;;31.38;16.73;;;-1.10;76.10;;;;;;5052618;28;20024;-77
2021/03/20 02:28:26;;;;;;;29.20;15.60;;;-1.10;76.20;;;;;;5034599;28;20059;-76
2021/03/20 02:31:19;;;;;;;27.02;14.77;;;-1.10;76.30;;;;;;5052648;28;20062;-76
2021/03/20 02:34:22;;;;;;;28.55;14.95;;;-1.10;76.20;;;;;;5052596;28;20033;-76
2021/03/20 02:37:11;;;;;;;25.27;14.32;;;-1.10;76.20;;;;;;5034718;28;20504;-76
2021/03/20 02:39:46;;;;;;;24.42;13.80;;;-1.00;76.30;;;;;;5052663;28;20017;-76
2021/03/20 02:42:21;;;;;;;28.25;12.95;;;-1.00;76.10;;;;;;5052513;28;20025;-76
2021/03/20 02:44:50;;;;;;;21.00;9.57;;;-1.10;75.90;;;;;;5052777;28;20052;-77
2021/03/20 02:47:28;;;;;;;21.95;11.93;;;-1.20;75.80;;;;;;5052900;28;20040;-77
2021/03/20 02:50:13;;;;;;;23.92;11.85;;;-1.10;76.10;;;;;;5038332;28;20124;-77
2021/03/20 02:53:06;;;;;;;23.10;12.13;;;-1.20;76.20;;;;;;5040747;28;20104;-77
2021/03/20 02:55:45;;;;;;;24.80;11.85;;;-1.10;76.20;;;;;;5041864;23;20313;-76
2021/03/20 02:58:14;;;;;;;22.45;12.30;;;-1.10;76.10;;;;;;4995289;28;20029;-76
2021/03/20 03:01:00;;;;;;;22.17;12.07;;;-1.20;75.80;;;;;;4995192;28;20033;-76
2021/03/20 03:03:32;;;;;;;24.08;11.85;;;-1.20;75.70;;;;;;5012753;28;20057;-77
2021/03/20 03:06:05;;;;;;;23.80;11.45;;;-1.20;75.70;;;;;;5012904;28;20022;-76
2021/03/20 03:08:37;;;;;;;23.25;12.38;;;-1.20;75.70;;;;;;5014388;28;20029;-76
2021/03/20 03:11:24;;;;;;;22.92;11.77;;;-1.20;75.60;;;;;;5013751;28;20157;-76
2021/03/20 03:13:58;;;;;;;22.05;11.63;;;-1.10;75.50;;;;;;4996206;28;20018;-77
2021/03/20 03:16:32;;;;;;;22.52;11.32;;;-1.10;75.20;;;;;;5027904;28;20069;-77
2021/03/20 03:19:03;;;;;;;23.88;12.02;;;-1.10;74.90;;;;;;5015967;28;20025;-76
2021/03/20 03:21:32;;;;;;;23.45;12.07;;;-1.20;74.70;;;;;;5016076;28;20057;-76
2021/03/20 03:23:58;;;;;;;23.33;12.30;;;-1.20;74.60;;;;;;4998244;28;20038;-76
2021/03/20 03:26:23;;;;;;;25.00;13.27;;;-1.30;74.50;;;;;;4998169;28;20414;-77
2021/03/20 03:28:53;;;;;;;25.83;13.82;;;-1.30;74.60;;;;;;5016224;28;20084;-76
2021/03/20 03:31:30;;;;;;;28.10;13.75;;;-1.50;74.40;;;;;;5025299;28;20033;-76
2021/03/20 03:34:03;;;;;;;28.17;14.00;;;-1.40;74.50;;;;;;5022796;28;20068;-76
2021/03/20 03:36:52;;;;;;;30.33;15.30;;;-1.40;74.60;;;;;;4998382;28;20040;-76
2021/03/20 03:39:23;;;;;;;27.30;13.52;;;-1.40;74.80;;;;;;5009620;28;20037;-76
2021/03/20 03:41:49;;;;;;;27.10;13.63;;;-1.30;74.90;;;;;;5015653;28;20077;-77
2021/03/20 03:44:15;;;;;;;26.58;12.38;;;-1.30;74.80;;;;;;4998142;28;20026;-76
2021/03/20 03:46:44;;;;;;;23.60;12.57;;;-1.30;74.70;;;;;;5015691;28;20030;-76
2021/03/20 03:49:12;;;;;;;24.27;13.45;;;-1.40;74.50;;;;;;5015630;28;20030;-76
2021/03/20 03:51:39;;;;;;;25.38;12.98;;;-1.40;74.60;;;;;;4997941;28;20582;-76
2021/03/20 03:54:05;;;;;;;34.90;15.82;;;-1.40;74.80;;;;;;4997840;28;20041;-76
2021/03/20 03:56:56;;;;;;;29.10;16.13;;;-1.30;75.10;;;;;;4997808;28;20397;-75
2021/03/20 03:59:36;;;;;;;33.13;17.35;;;-1.30;75.50;;;;;;5015592;28;20025;-76
2021/03/20 04:02:01;;;;;;;36.78;17.75;;;-1.30;75.70;;;;;;5015105;28;20046;-76
2021/03/20 04:05:11;;;;;;;37.20;17.92;;;-1.30;76.30;;;;;;5015269;28;20105;-76
2021/03/20 04:07:51;;;;;;;35.17;16.83;;;-1.40;76.30;;;;;;4999438;28;20072;-76
2021/03/20 04:10:17;;;;;;;34.35;16.30;;;-1.40;76.70;;;;;;5015150;28;20022;-75
2021/03/20 04:13:16;;;;;;;29.15;15.27;;;-1.50;77.00;;;;;;4997472;28;20032;-75
2021/03/20 04:16:14;;;;;;;31.83;16.08;;;-1.50;77.10;;;;;;5030244;28;20014;-76
2021/03/20 04:19:12;;;;;;;33.80;16.27;;;-1.40;77.30;;;;;;5015069;28;20458;-75
2021/03/20 04:22:03;;;;;;;30.77;16.02;;;-1.50;76.90;;;;;;4997171;28;20049;-75
2021/03/20 04:24:44;;;;;;;27.90;13.80;;;-1.50;77.00;;;;;;4991794;28;20045;-76
2021/03/20 04:27:19;;;;;;;31.52;15.38;;;-1.50;77.10;;;;;;4997204;28;20482;-76
2021/03/20 04:29:57;;;;;;;30.35;15.27;;;-1.40;77.20;;;;;;4996198;28;20072;-75
2021/03/20 04:32:45;;;;;;;31.25;15.38;;;-1.40;77.30;;;;;;5014586;28;20068;-76
2021/03/20 04:35:43;;;;;;;29.52;14.82;;;-1.40;77.10;;;;;;4996612;28;20125;-75
2021/03/20 04:38:10;;;;;;;27.17;14.05;;;-1.40;77.20;;;;;;4996987;28;20128;-75
2021/03/20 04:40:45;;;;;;;27.55;14.75;;;-1.40;77.30;;;;;;5014236;28;20033;-75
2021/03/20 04:43:12;;;;;;;;;;;-1.30;77.50;;;;;;5014808;28;20037;-76
2021/03/20 04:45:42;;;;;;;28.60;14.73;;;-1.30;77.60;;;;;;4996946;28;19912;-76
2021/03/20 04:48:34;;;;;;;31.08;14.35;;;-1.20;77.40;;;;;;5012861;28;20441;-76
2021/03/20 04:51:13;;;;;;;31.13;15.75;;;-1.20;77.10;;;;;;4996708;28;20505;-76
2021/03/20 04:53:38;;;;;;;32.13;14.95;;;-1.20;76.80;;;;;;4996565;28;20034;-76
2021/03/20 04:56:07;;;;;;;27.20;14.60;;;-1.20;76.60;;;;;;5029085;23;20087;-76
2021/03/20 04:58:46;;;;;;;27.92;15.23;;;-1.20;76.40;;;;;;5036002;28;20024;-76
2021/03/20 05:01:34;;;;;;;26.48;14.45;;;-1.20;76.60;;;;;;5036120;28;20074;-76
2021/03/20 05:04:15;;;;;;;27.42;14.30;;;-1.20;76.80;;;;;;5053574;28;20443;-75
2021/03/20 05:06:40;;;;;;;25.08;13.77;;;-1.20;76.70;;;;;;5035762;28;20021;-76
2021/03/20 05:09:12;;;;;;;27.60;15.13;;;-1.20;76.60;;;;;;5053670;28;20355;-76
2021/03/20 05:11:48;;;;;;;28.08;14.82;;;-1.20;76.60;;;;;;5035906;28;20032;-76
2021/03/20 05:14:34;;;;;;;28.52;14.73;;;-1.10;76.80;;;;;;5035682;28;20559;-76
2021/03/20 05:17:03;;;;;;;24.73;13.23;;;-1.10;76.50;;;;;;5035397;28;20040;-76
2021/03/20 05:19:30;;;;;;;28.00;14.55;;;-1.10;76.30;;;;;;5035569;28;20029;-76
2021/03/20 05:21:57;;;;;;;32.08;13.98;;;-1.10;76.20;;;;;;5053131;28;20021;-76
2021/03/20 05:24:35;;;;;;;34.33;14.93;;;-1.10;76.00;;;;;;5035367;28;20025;-76
2021/03/20 05:27:03;;;;;;;24.90;13.52;;;-1.30;75.80;;;;;;5035285;28;20052;-76
2021/03/20 05:29:29;;;;;;;23.67;13.68;;;-1.30;76.00;;;;;;5035259;28;20067;-75
2021/03/20 05:31:57;;;;;;;27.67;14.45;;;-1.20;76.00;;;;;;5053197;28;20105;-76
2021/03/20 05:34:32;;;;;;;31.58;14.43;;;-1.30;76.00;;;;;;5035325;28;20036;-76
2021/03/20 05:37:01;;;;;;;;;;;-1.30;76.20;;;;;;5035834;28;20116;-76
2021/03/20 05:39:28;;;;;;;32.13;14.75;;;-1.20;76.40;;;;;;5035249;28;19912;-76
2021/03/20 05:42:12;;;;;;;29.13;15.48;;;-1.10;76.50;;;;;;5052841;28;20099;-76
2021/03/20 05:44:49;;;;;;;30.35;14.30;;;-1.10;76.40;;;;;;5035315;28;20573;-75
2021/03/20 05:47:45;;;;;;;27.88;14.65;;;-1.00;76.30;;;;;;5053133;28;20436;-76
2021/03/20 05:50:26;;;;;;;25.67;13.02;;;-0.90;76.40;;;;;;5035078;28;20388;-75
2021/03/20 05:53:02;;;;;;;31.08;15.35;;;-0.80;76.40;;;;;;5035093;28;20143;-75
2021/03/20 05:55:31;;;;;;;29.52;15.82;;;-0.80;76.30;;;;;;5035021;28;20032;-75
2021/03/20 05:58:20;;;;;;;28.63;15.20;;;-0.80;76.40;;;;;;5035260;28;20072;-75
2021/03/20 06:01:19;;;;;;;27.08;14.65;;;-0.70;76.60;;;;;;5035096;28;20021;-75
2021/03/20 06:04:10;;;;;;;26.27;14.43;;;-0.70;76.60;;;;;;5034966;28;20457;-75
2021/03/20 06:06:59;;;;;;;32.47;17.55;;;-0.70;76.70;;;;;;5035281;28;20094;-75
2021/03/20 06:10:08;;;;;;;33.78;17.95;;;-0.70;76.70;;;;;;5035109;28;20051;-76
2021/03/20 06:13:15;;;;;;;34.47;17.42;;;-0.80;76.60;;;;;;4983654;28;20119;-76
2021/03/20 06:15:47;;;;;;;27.13;13.98;;;-0.80;76.60;;;;;;5035175;28;20032;-75
2021/03/20 06:18:38;;;;;;;27.85;14.77;;;-0.90;76.30;;;;;;5034923;28;20028;-75
2021/03/20 06:21:32;;;;;;;29.65;13.63;;;-0.90;76.50;;;;;;5052743;28;20025;-76
2021/03/20 06:24:33;;;;;;;25.75;13.57;;;-0.90;76.70;;;;;;5034853;28;20036;-76
2021/03/20 06:27:00;;;;;;;27.55;14.73;;;-0.70;77.00;;;;;;5052937;28;20028;-77
2021/03/20 06:30:01;;;;;;;27.23;14.18;;;-0.70;77.00;;;;;;5052276;28;20052;-75
2021/03/20 06:32:32;;;;;;;28.35;14.23;;;-0.60;76.80;;;;;;5011814;28;20037;-76
2021/03/20 06:35:07;;;;;;;34.65;15.93;;;-0.50;76.70;;;;;;5034720;28;20522;-76
2021/03/20 06:37:39;;;;;;;30.45;16.55;;;-0.30;76.60;;;;;;5034741;28;20032;-76
2021/03/20 06:40:25;;;;;;;30.50;16.08;;;-0.20;76.30;;;;;;5034756;28;20082;-76
2021/03/20 06:42:52;;;;;;;31.55;17.58;;;0.00;76.00;;;;;;5034677;28;20084;-75
2021/03/20 06:45:19;;;;;;;30.20;17.02;;;0.10;75.50;;;;;;5028536;28;20120;-76
2021/03/20 06:47:47;;;;;;;31.35;18.05;;;0.20;75.00;;;;;;5034759;28;20040;-75
2021/03/20 06:50:34;;;;;;;33.65;18.25;;;0.20;74.80;;;;;;5034387;28;20119;-75
2021/03/20 06:53:08;;;;;;;31.75;16.60;;;0.10;75.10;;;;;;5036521;28;20013;-75
2021/03/20 06:55:41;;;;;;;31.35;17.13;;;0.20;75.20;;;;;;5056359;28;20094;-75
2021/03/20 06:58:13;;;;;;;29.38;17.48;;;0.30;75.20;;;;;;5038246;28;20087;-76
2021/03/20 07:00:42;;;;;;;33.90;17.65;;;0.40;75.10;;;;;;5038333;28;20458;-74
2021/03/20 07:03:13;;;;;;;37.38;18.42;;;0.40;75.30;;;;;;5037986;28;20036;-76
2021/03/20 07:05:56;;;;;;;35.60;18.63;;;0.60;75.30;;;;;;5055972;28;20025;-76
2021/03/20 07:08:31;;;;;;;32.35;17.70;;;0.60;74.80;;;;;;5037939;28;20025;-75
2021/03/20 07:10:57;;;;;;;31.60;16.30;;;0.50;75.30;;;;;;5037454;28;20354;-75
2021/03/20 07:13:42;;;;;;;32.85;17.10;;;0.70;75.40;;;;;;5037931;28;20071;-76
2021/03/20 07:16:11;;;;;;;35.13;17.48;;;0.90;75.00;;;;;;5038011;28;20099;-77
2021/03/20 07:18:42;;;;;;;41.08;18.45;;;1.10;74.20;;;;;;5047644;28;20094;-76
2021/03/20 07:21:29;;;;;;;32.85;16.00;;;1.00;73.70;;;;;;5030335;28;20060;-76
2021/03/20 07:23:56;;;;;;;32.45;17.65;;;1.00;73.80;;;;;;5055434;28;20037;-77
2021/03/20 07:26:22;;;;;;;30.55;17.50;;;0.90;74.20;;;;;;5055612;28;20099;-74
2021/03/20 07:28:52;;;;;;;29.15;17.10;;;0.80;74.70;;;;;;5037549;28;20025;-74
2021/03/20 07:31:19;;;;;;;29.35;16.73;;;0.90;75.10;;;;;;5037732;28;20079;-74
2021/03/20 07:33:52;;;;;;;27.30;15.95;;;1.00;75.10;;;;;;5037562;28;20366;-74
2021/03/20 07:36:37;;;;;;;27.42;16.20;;;1.20;75.50;;;;;;5037776;28;20093;-74
2021/03/20 07:39:06;;;;;;;26.65;15.73;;;1.30;74.20;;;;;;5037519;28;20052;-77
2021/03/20 07:41:59;;;;;;;24.73;14.88;;;1.60;74.40;;;;;;5037335;28;20478;-73
2021/03/20 07:44:28;;;;;;;24.75;14.15;;;1.80;72.30;;;;;;5037460;28;20033;-73
2021/03/20 07:46:56;;;;;;;24.30;14.75;;;1.80;71.30;;;;;;5037268;28;20017;-75
2021/03/20 07:49:33;;;;;;;23.27;13.80;;;1.90;71.10;;;;;;5037489;28;20059;-76
2021/03/20 07:52:02;;;;;;;19.55;12.23;;;1.80;70.60;;;;;;5055089;28;20028;-75
2021/03/20 07:54:45;;;;;;;22.00;14.40;;;1.80;70.50;;;;;;5037300;28;20481;-74
2021/03/20 07:57:14;;;;;;;23.95;14.50;;;2.00;70.40;;;;;;5054875;28;20079;-74
2021/03/20 07:59:47;;;;;;;21.92;12.90;;;2.10;70.10;;;;;;5037420;28;20025;-74
2021/03/20 08:02:34;;;;;;;19.75;12.75;;;2.00;69.40;;;;;;5037039;28;20456;-75
2021/03/20 08:05:17;;;;;;;24.33;14.27;;;1.80;69.80;;;;;;5035632;28;20499;-74
2021/03/20 08:07:47;;;;;;;20.17;12.68;;;1.80;70.00;;;;;;5037049;28;20029;-75
2021/03/20 08:10:26;;;;;;;20.90;13.82;;;1.90;70.10;;;;;;5036661;28;20383;-75
2021/03/20 08:12:57;;;;;;;20.08;12.60;;;2.00;70.10;;;;;;5038021;28;20123;-75
2021/03/20 08:15:34;;;;;;;18.75;11.15;;;2.10;69.90;;;;;;5058886;28;20021;-75
2021/03/20 08:18:30;;;;;;;14.25;9.38;;;2.20;69.20;;;;;;5039274;28;20025;-75
2021/03/20 08:21:25;;;;;;;16.40;10.13;;;2.40;67.80;;;;;;5062240;28;20044;-75
2021/03/20 08:23:57;;;;;;;11.15;6.75;;;2.50;66.50;;;;;;5037142;28;20033;-76
2021/03/20 08:26:38;;;;;;;12.32;8.43;;;2.60;65.70;;;;;;5039159;28;20078;-77
2021/03/20 08:29:30;;;;;;;11.93;7.60;;;2.60;64.50;;;;;;5054665;28;20065;-74
2021/03/20 08:32:23;;;;;;;11.40;7.60;;;2.50;63.60;;;;;;5055019;28;20104;-76
2021/03/20 08:35:14;;;;;;;10.65;6.60;;;2.60;62.60;;;;;;5054672;28;20025;-76
2021/03/20 08:38:09;;;;;;;10.90;7.15;;;2.70;61.50;;;;;;5036523;28;20074;-76
2021/03/20 08:40:46;;;;;;;11.57;7.33;;;2.50;61.10;;;;;;5053141;28;20017;-75
2021/03/20 08:43:44;;;;;;;10.77;6.68;;;2.40;61.80;;;;;;5053836;28;20041;-74
2021/03/20 08:46:13;;;;;;;15.07;6.32;;;2.50;62.10;;;;;;5036229;28;20024;-73
2021/03/20 08:49:05;;;;;;;11.52;7.32;;;3.10;79.80;;;;;;5036450;28;20025;-74
2021/03/20 08:51:46;;;;;;;9.32;6.20;;;3.70;82.70;;;;;;5036133;28;20405;-73
2021/03/20 08:54:39;;;;;;;11.98;6.90;;;4.50;78.90;;;;;;5053986;28;20025;-74
2021/03/20 08:57:30;;;;;;;8.98;5.65;;;4.80;69.30;;;;;;5035655;28;20389;-74
2021/03/20 08:59:58;;;;;;;7.03;4.85;;;5.30;67.10;;;;;;5036066;28;20131;-74
2021/03/20 09:02:38;;;;;;;7.78;4.97;;;5.30;64.10;;;;;;5035779;28;20076;-73
2021/03/20 09:05:29;;;;;;;5.63;4.60;;;5.40;60.50;;;;;;5035617;28;20485;-73
2021/03/20 09:08:23;;;;;;;7.28;4.55;;;5.50;60.20;;;;;;5035554;28;20036;-73
2021/03/20 09:10:58;;;;;;;6.00;4.45;;;5.90;57.50;;;;;;5035634;28;20049;-72
2021/03/20 09:13:29;;;;;;;6.20;4.32;;;6.70;57.60;;;;;;5035725;28;20025;-72
2021/03/20 09:16:00;;;;;;;5.95;4.25;;;7.10;55.00;;;;;;5035332;28;20025;-72
2021/03/20 09:18:26;;;;;;;7.50;4.68;;;7.30;52.40;;;;;;5035568;28;20025;-73
2021/03/20 09:20:59;;;;;;;6.03;4.18;;;7.40;51.30;;;;;;5035379;28;20386;-73
2021/03/20 09:23:39;;;;;;;8.50;4.20;;;7.30;50.50;;;;;;5035428;28;20037;-72
2021/03/20 09:26:09;;;;;;;9.07;5.05;;;7.40;49.90;;;;;;5035340;28;20024;-75
2021/03/20 09:29:01;;;;;;;8.80;5.35;;;6.60;45.80;;;;;;5048007;28;20026;-76
2021/03/20 09:31:30;;;;;;;7.20;5.28;;;5.70;46.60;;;;;;5026143;28;20382;-75
2021/03/20 09:33:58;;;;;;;7.25;5.10;;;5.30;47.40;;;;;;5035180;28;20109;-75
2021/03/20 09:36:45;;;;;;;8.45;5.40;;;5.00;48.20;;;;;;5035429;28;20131;-76
2021/03/20 09:39:33;;;;;;;8.43;5.13;;;4.90;49.20;;;;;;5052929;28;20017;-76
2021/03/20 09:41:59;;;;;;;10.77;6.90;;;5.10;49.10;;;;;;5053016;28;20462;-74
2021/03/20 09:44:26;;;;;;;6.82;4.30;;;5.30;48.80;;;;;;5052984;28;20028;-73
2021/03/20 09:46:53;;;;;;;7.45;5.07;;;5.70;48.30;;;;;;5045443;28;20033;-75
2021/03/20 09:49:22;;;;;;;5.97;3.95;;;5.70;46.90;;;;;;5052387;28;20025;-74
2021/03/20 09:51:54;;;;;;;6.70;4.60;;;5.70;45.80;;;;;;5034758;28;20021;-76
2021/03/20 09:54:27;;;;;;;8.13;4.28;;;5.20;44.80;;;;;;5052335;28;20033;-76
2021/03/20 09:59:42;;;;;;;5.40;4.03;;;5.00;45.90;;;;;;5057280;23;20049;-73
2021/03/20 10:02:11;;;;;;;6.30;4.53;;;5.60;46.90;;;;;;5034313;28;20029;-73
2021/03/20 10:04:55;;;;;;;8.07;4.20;;;5.80;45.80;;;;;;5034578;28;20110;-73
2021/03/20 10:07:20;;;;;;;5.68;3.75;;;5.70;45.10;;;;;;5024970;28;20060;-74
2021/03/20 10:10:08;;;;;;;7.60;4.13;;;5.30;44.20;;;;;;5033255;28;20413;-74
2021/03/20 10:12:40;;;;;;;6.53;4.28;;;5.00;44.30;;;;;;5049873;28;20101;-74
2021/03/20 10:15:12;;;;;;;6.47;4.32;;;4.80;44.80;;;;;;5052574;28;20426;-75
2021/03/20 10:18:00;;;;;;;7.25;4.35;;;4.20;45.40;;;;;;5034748;28;20037;-75
2021/03/20 10:20:38;;;;;;;6.60;4.07;;;4.10;46.90;;;;;;5052479;28;20141;-74
2021/03/20 10:23:13;;;;;;;6.68;4.22;;;4.70;47.40;;;;;;5052021;28;20115;-75
2021/03/20 10:25:53;;;;;;;6.03;3.90;;;5.40;46.70;;;;;;5052424;28;20460;-75
2021/03/20 10:28:20;;;;;;;6.40;3.78;;;6.00;45.30;;;;;;5055063;28;20500;-75
2021/03/20 10:31:05;;;;;;;6.05;3.85;;;6.20;43.70;;;;;;5038192;28;20021;-75
2021/03/20 10:33:34;;;;;;;9.15;5.03;;;5.80;43.40;;;;;;5056289;28;20059;-76
2021/03/20 10:36:08;;;;;;;9.13;5.88;;;5.70;43.40;;;;;;5055997;28;20021;-76
2021/03/20 10:38:34;;;;;;;5.60;4.05;;;6.00;43.50;;;;;;5056252;28;20025;-75
2021/03/20 10:41:11;;;;;;;8.93;4.30;;;5.90;43.90;;;;;;5056161;28;20406;-75
2021/03/20 10:44:03;;;;;;;6.55;4.07;;;6.00;44.30;;;;;;5056291;28;20370;-75
2021/03/20 10:46:35;;;;;;;8.02;4.07;;;6.00;44.50;;;;;;5038348;28;20389;-75
2021/03/20 10:49:07;;;;;;;5.78;3.72;;;5.80;44.30;;;;;;5056340;28;20044;-75
2021/03/20 10:51:39;;;;;;;7.15;4.53;;;5.70;44.30;;;;;;5056131;28;20116;-75
2021/03/20 10:54:15;;;;;;;6.22;3.90;;;6.10;44.10;;;;;;5056210;28;20032;-76
2021/03/20 10:56:42;;;;;;;7.93;3.97;;;6.60;43.50;;;;;;5055975;28;20354;-74
2021/03/20 10:59:23;;;;;;;5.72;4.00;;;6.80;42.50;;;;;;5055537;28;20421;-75
2021/03/20 11:01:48;;;;;;;8.68;3.88;;;7.20;42.30;;;;;;5056112;28;20087;-74
2021/03/20 11:04:31;;;;;;;6.78;3.72;;;7.30;41.20;;;;;;5055910;28;20065;-76
2021/03/20 11:06:59;;;;;;;8.73;3.65;;;6.90;40.30;;;;;;5055808;28;20370;-73
2021/03/20 11:09:32;;;;;;;5.07;3.80;;;6.70;40.30;;;;;;5055908;28;20060;-81
2021/03/20 11:12:03;;;;;;;8.85;3.50;;;6.50;40.70;;;;;;5055575;28;20388;-78
2021/03/20 11:14:30;;;;;;;10.25;3.65;;;6.70;40.90;;;;;;5055861;28;20116;-74
2021/03/20 11:17:01;;;;;;;3.88;3.30;;;6.60;40.60;;;;;;5037920;28;20500;-73
2021/03/20 11:19:45;;;;;;;4.88;3.55;;;6.60;40.40;;;;;;5037860;28;20052;-74
2021/03/20 11:22:26;;;;;;;5.40;3.47;;;6.20;39.60;;;;;;5055456;28;20100;-74
2021/03/20 11:24:56;;;;;;;6.78;3.38;;;5.70;39.50;;;;;;5054571;28;20032;-73
2021/03/20 11:27:29;;;;;;;5.15;3.55;;;6.10;40.00;;;;;;5028916;28;20108;-73
2021/03/20 11:30:20;;;;;;;7.60;3.53;;;6.60;39.90;;;;;;5055179;28;20553;-73
2021/03/20 11:32:48;;;;;;;5.40;3.45;;;6.80;39.60;;;;;;5055274;28;20028;-73
2021/03/20 11:35:40;;;;;;;4.38;3.28;;;7.30;39.70;;;;;;5037389;28;20017;-74
2021/03/20 11:38:10;;;;;;;5.03;3.25;;;7.90;39.00;;;;;;5054769;28;20061;-74
2021/03/20 11:40:41;;;;;;;6.20;3.75;;;8.30;38.00;;;;;;5036806;28;20017;-75
2021/03/20 11:43:26;;;;;;;4.97;3.22;;;8.50;36.90;;;;;;5054972;28;20115;-75
2021/03/20 11:46:05;;;;;;;7.28;3.50;;;7.80;35.70;;;;;;5037114;28;20017;-75
2021/03/20 11:48:34;;;;;;;3.83;3.10;;;7.50;35.30;;;;;;5054898;28;20492;-75
2021/03/20 11:51:04;;;;;;;4.00;2.90;;;6.90;34.90;;;;;;5036825;28;20087;-75
2021/03/20 11:53:35;;;;;;;4.82;3.25;;;6.90;34.80;;;;;;5036927;28;20029;-75
2021/03/20 11:56:11;;;;;;;7.30;3.42;;;7.30;35.50;;;;;;5037140;28;20052;-75
2021/03/20 11:58:38;;;;;;;7.43;3.78;;;7.30;35.60;;;;;;5054892;28;20103;-75
2021/03/20 12:01:27;;;;;;;4.22;2.72;;;7.90;35.90;;;;;;5036376;28;20041;-75
2021/03/20 12:03:54;;;;;;;4.80;2.60;;;8.60;35.50;;;;;;5054603;28;20098;-75
2021/03/20 12:06:25;;;;;;;5.93;3.08;;;9.30;35.00;;;;;;5054924;28;20017;-75
2021/03/20 12:08:53;;;;;;;5.40;2.65;;;9.70;33.70;;;;;;5054529;28;20051;-75
2021/03/20 12:11:40;;;;;;;7.75;2.70;;;10.00;32.90;;;;;;5036638;28;20520;-75
2021/03/20 12:14:30;;;;;;;7.28;3.08;;;10.10;32.00;;;;;;5053789;28;20485;-75
2021/03/20 12:17:24;;;;;;;6.47;2.80;;;10.00;31.10;;;;;;5054513;28;20048;-74
2021/03/20 12:19:55;;;;;;;6.85;2.85;;;9.90;30.40;;;;;;5036637;28;20067;-75
2021/03/20 12:22:46;;;;;;;6.88;2.88;;;9.90;29.70;;;;;;5036026;28;20071;-75
2021/03/20 12:25:21;;;;;;;2.50;2.22;;;9.90;29.40;;;;;;5054180;28;20032;-75
2021/03/20 12:27:49;;;;;;;5.10;2.53;;;10.00;29.00;;;;;;5054314;28;20088;-75
2021/03/20 12:30:31;;;;;;;4.93;2.80;;;10.10;29.00;;;;;;5036179;28;20371;-75
2021/03/20 12:33:15;;;;;;;5.55;2.60;;;10.60;29.20;;;;;;5036063;28;20462;-75
2021/03/20 12:35:43;;;;;;;2.28;2.05;;;10.60;28.60;;;;;;5036065;28;20071;-75
2021/03/20 12:38:12;;;;;;;2.22;2.03;;;10.80;27.80;;;;;;5036002;28;20604;-74
2021/03/20 12:40:40;;;;;;;4.75;2.63;;;10.70;27.30;;;;;;5036280;28;20331;-74
2021/03/20 12:43:14;;;;;;;3.22;2.47;;;10.30;26.80;;;;;;5054202;28;20072;-74
2021/03/20 12:45:39;;;;;;;4.20;2.70;;;10.50;26.90;;;;;;5037972;28;20033;-74
2021/03/20 12:48:05;;;;;;;4.68;2.60;;;10.60;27.10;;;;;;5054732;28;20055;-74
2021/03/20 12:50:31;;;;;;;4.68;2.85;;;10.90;27.10;;;;;;5055000;28;20489;-75
2021/03/20 12:52:57;;;;;;;4.40;2.60;;;11.20;26.90;;;;;;5062146;28;20025;-76
2021/03/20 12:55:22;;;;;;;3.55;2.58;;;10.80;26.40;;;;;;5059702;28;20083;-75
2021/03/20 12:57:48;;;;;;;3.85;2.90;;;10.80;25.90;;;;;;5054203;28;20555;-74
2021/03/20 13:00:19;;;;;;;4.07;2.58;;;11.00;26.30;;;;;;5035553;28;20087;-74
2021/03/20 13:02:45;;;;;;;3.50;2.35;;;11.30;26.80;;;;;;5053311;28;20044;-73
2021/03/20 13:05:19;;;;;;;2.97;2.35;;;11.70;27.00;;;;;;5053573;28;20016;-75
2021/03/20 13:07:45;;;;;;;4.22;2.72;;;11.90;26.80;;;;;;5035605;28;20043;-74
2021/03/20 13:10:12;;;;;;;9.63;3.35;;;11.30;25.70;;;;;;5053457;28;20025;-74
2021/03/20 13:12:38;;;;;;;6.25;2.67;;;11.20;25.50;;;;;;5035527;28;20021;-74
2021/03/20 13:15:05;;;;;;;2.92;2.45;;;9.80;25.20;;;;;;5026792;28;20025;-75
2021/03/20 13:17:30;;;;;;;3.15;2.30;;;9.50;25.70;;;;;;5053124;28;20082;-74
2021/03/20 13:19:56;;;;;;;4.85;2.20;;;9.40;25.70;;;;;;5053309;28;20017;-74
2021/03/20 13:22:21;;;;;;;4.68;2.53;;;9.80;26.00;;;;;;5053179;28;20037;-75
2021/03/20 13:24:48;;;;;;;3.80;2.22;;;10.20;26.00;;;;;;5035389;28;20067;-75